Aviation Digital Data Service (ADDS)

Output produced by METARs form (1932 UTC 17 February 2018)
found at http://aviationweather.gov/adds/metars/
 
KBDL 171727Z 1718/1824 18004KT P6SM SCT100 BKN240 
     FM180100 16005KT 1SM -SN OVC035 
     FM180300 VRB03KT 1/4SM +SN OVC010 
     FM181000 31004KT P6SM OVC015 
     FM181100 31005KT P6SM BKN050 
     FM181500 32011G22KT P6SM FEW250 
     FM181700 32009KT P6SM FEW250